sensor_id;sensor_type;location;lat;lon;timestamp;temperature;humidity
18365;DHT22;9309;52.126;11.616;2023-05-10T00:01:22;12.60;53.90
18365;DHT22;9309;52.126;11.616;2023-05-10T00:03:48;12.60;54.10
18365;DHT22;9309;52.126;11.616;2023-05-10T00:06:15;12.70;53.80
18365;DHT22;9309;52.126;11.616;2023-05-10T00:08:42;12.60;53.80
18365;DHT22;9309;52.126;11.616;2023-05-10T00:11:08;12.50;54.50
18365;DHT22;9309;52.126;11.616;2023-05-10T00:13:35;12.50;54.40
18365;DHT22;9309;52.126;11.616;2023-05-10T00:16:04;12.50;54.50
18365;DHT22;9309;52.126;11.616;2023-05-10T00:18:30;12.40;54.80
18365;DHT22;9309;52.126;11.616;2023-05-10T00:20:57;12.30;55.00
18365;DHT22;9309;52.126;11.616;2023-05-10T00:23:24;12.30;55.10
18365;DHT22;9309;52.126;11.616;2023-05-10T00:25:50;12.30;55.30
18365;DHT22;9309;52.126;11.616;2023-05-10T00:28:17;12.30;55.10
18365;DHT22;9309;52.126;11.616;2023-05-10T00:30:44;12.30;55.20
18365;DHT22;9309;52.126;11.616;2023-05-10T00:33:11;12.30;55.20
18365;DHT22;9309;52.126;11.616;2023-05-10T00:35:38;12.20;55.60
18365;DHT22;9309;52.126;11.616;2023-05-10T00:38:05;12.20;55.50
18365;DHT22;9309;52.126;11.616;2023-05-10T00:40:32;12.30;55.20
18365;DHT22;9309;52.126;11.616;2023-05-10T00:43:03;12.20;55.60
18365;DHT22;9309;52.126;11.616;2023-05-10T00:45:31;12.20;55.70
18365;DHT22;9309;52.126;11.616;2023-05-10T00:47:59;12.10;55.80
18365;DHT22;9309;52.126;11.616;2023-05-10T00:50:29;12.10;56.00
18365;DHT22;9309;52.126;11.616;2023-05-10T00:52:56;12.00;56.20
18365;DHT22;9309;52.126;11.616;2023-05-10T00:55:23;12.10;56.40
18365;DHT22;9309;52.126;11.616;2023-05-10T00:57:50;12.00;56.60
18365;DHT22;9309;52.126;11.616;2023-05-10T01:00:17;12.00;56.50
18365;DHT22;9309;52.126;11.616;2023-05-10T01:02:44;12.10;56.30
18365;DHT22;9309;52.126;11.616;2023-05-10T01:05:11;12.00;56.50
18365;DHT22;9309;52.126;11.616;2023-05-10T01:07:39;12.10;56.50
18365;DHT22;9309;52.126;11.616;2023-05-10T01:10:07;12.00;57.20
18365;DHT22;9309;52.126;11.616;2023-05-10T01:12:38;11.90;57.30
18365;DHT22;9309;52.126;11.616;2023-05-10T01:15:07;11.90;57.40
18365;DHT22;9309;52.126;11.616;2023-05-10T01:17:35;11.80;57.80
18365;DHT22;9309;52.126;11.616;2023-05-10T01:20:02;11.70;58.00
18365;DHT22;9309;52.126;11.616;2023-05-10T01:22:50;11.70;58.10
18365;DHT22;9309;52.126;11.616;2023-05-10T01:25:35;11.70;58.00
18365;DHT22;9309;52.126;11.616;2023-05-10T01:28:35;11.60;58.20
18365;DHT22;9309;52.126;11.616;2023-05-10T01:31:28;11.60;58.30
18365;DHT22;9309;52.126;11.616;2023-05-10T01:34:01;11.60;58.60
18365;DHT22;9309;52.126;11.616;2023-05-10T01:36:31;11.60;58.70
18365;DHT22;9309;52.126;11.616;2023-05-10T01:39:02;11.60;58.70
18365;DHT22;9309;52.126;11.616;2023-05-10T01:41:39;11.50;58.90
18365;DHT22;9309;52.126;11.616;2023-05-10T01:44:12;11.60;58.70
18365;DHT22;9309;52.126;11.616;2023-05-10T01:46:43;11.50;58.90
18365;DHT22;9309;52.126;11.616;2023-05-10T01:49:15;11.50;59.20
18365;DHT22;9309;52.126;11.616;2023-05-10T01:51:49;11.50;59.30
18365;DHT22;9309;52.126;11.616;2023-05-10T01:54:20;11.50;59.20
18365;DHT22;9309;52.126;11.616;2023-05-10T01:56:52;11.50;59.20
18365;DHT22;9309;52.126;11.616;2023-05-10T01:59:21;11.60;59.20
18365;DHT22;9309;52.126;11.616;2023-05-10T02:01:48;11.40;59.50
18365;DHT22;9309;52.126;11.616;2023-05-10T02:04:19;11.30;59.80
18365;DHT22;9309;52.126;11.616;2023-05-10T02:06:48;11.30;60.00
18365;DHT22;9309;52.126;11.616;2023-05-10T02:09:16;11.30;60.00
18365;DHT22;9309;52.126;11.616;2023-05-10T02:11:44;11.30;60.20
18365;DHT22;9309;52.126;11.616;2023-05-10T02:14:11;11.30;60.50
18365;DHT22;9309;52.126;11.616;2023-05-10T02:16:39;11.40;60.10
18365;DHT22;9309;52.126;11.616;2023-05-10T02:19:07;11.40;59.80
18365;DHT22;9309;52.126;11.616;2023-05-10T02:21:37;11.30;60.30
18365;DHT22;9309;52.126;11.616;2023-05-10T02:24:06;11.20;60.70
18365;DHT22;9309;52.126;11.616;2023-05-10T02:26:35;11.10;60.80
18365;DHT22;9309;52.126;11.616;2023-05-10T02:29:03;11.10;60.80
18365;DHT22;9309;52.126;11.616;2023-05-10T02:31:32;11.20;60.70
18365;DHT22;9309;52.126;11.616;2023-05-10T02:34:00;11.10;60.90
18365;DHT22;9309;52.126;11.616;2023-05-10T02:36:28;11.10;61.10
18365;DHT22;9309;52.126;11.616;2023-05-10T02:38:58;11.10;61.10
18365;DHT22;9309;52.126;11.616;2023-05-10T02:41:27;11.10;61.20
18365;DHT22;9309;52.126;11.616;2023-05-10T02:43:58;11.20;60.70
18365;DHT22;9309;52.126;11.616;2023-05-10T02:46:26;11.10;60.90
18365;DHT22;9309;52.126;11.616;2023-05-10T02:48:52;11.00;61.50
18365;DHT22;9309;52.126;11.616;2023-05-10T02:51:24;11.10;61.00
18365;DHT22;9309;52.126;11.616;2023-05-10T02:53:53;11.10;61.20
18365;DHT22;9309;52.126;11.616;2023-05-10T02:56:27;11.10;60.90
18365;DHT22;9309;52.126;11.616;2023-05-10T02:58:55;11.00;61.10
18365;DHT22;9309;52.126;11.616;2023-05-10T03:01:22;10.90;61.70
18365;DHT22;9309;52.126;11.616;2023-05-10T03:03:49;10.90;61.80
18365;DHT22;9309;52.126;11.616;2023-05-10T03:06:15;10.90;61.80
18365;DHT22;9309;52.126;11.616;2023-05-10T03:08:43;10.90;62.10
18365;DHT22;9309;52.126;11.616;2023-05-10T03:11:28;10.80;62.20
18365;DHT22;9309;52.126;11.616;2023-05-10T03:14:10;10.70;62.40
18365;DHT22;9309;52.126;11.616;2023-05-10T03:16:44;10.80;62.20
18365;DHT22;9309;52.126;11.616;2023-05-10T03:19:16;10.90;62.00
18365;DHT22;9309;52.126;11.616;2023-05-10T03:21:49;10.90;61.80
18365;DHT22;9309;52.126;11.616;2023-05-10T03:24:20;10.90;62.10
18365;DHT22;9309;52.126;11.616;2023-05-10T03:26:50;10.90;62.00
18365;DHT22;9309;52.126;11.616;2023-05-10T03:29:20;10.90;62.20
18365;DHT22;9309;52.126;11.616;2023-05-10T03:31:48;10.80;62.40
18365;DHT22;9309;52.126;11.616;2023-05-10T03:34:15;10.90;62.20
18365;DHT22;9309;52.126;11.616;2023-05-10T03:36:42;10.90;62.10
18365;DHT22;9309;52.126;11.616;2023-05-10T03:39:09;10.80;62.50
18365;DHT22;9309;52.126;11.616;2023-05-10T03:41:36;10.80;62.50
18365;DHT22;9309;52.126;11.616;2023-05-10T03:44:04;10.70;63.20
18365;DHT22;9309;52.126;11.616;2023-05-10T03:46:31;10.60;63.20
18365;DHT22;9309;52.126;11.616;2023-05-10T03:48:58;10.90;62.40
18365;DHT22;9309;52.126;11.616;2023-05-10T03:51:24;10.80;62.90
18365;DHT22;9309;52.126;11.616;2023-05-10T03:53:53;10.60;63.40
18365;DHT22;9309;52.126;11.616;2023-05-10T03:56:20;10.70;63.20
18365;DHT22;9309;52.126;11.616;2023-05-10T03:58:47;10.80;62.60
18365;DHT22;9309;52.126;11.616;2023-05-10T04:01:15;10.70;63.70
18365;DHT22;9309;52.126;11.616;2023-05-10T04:03:42;10.70;63.00
18365;DHT22;9309;52.126;11.616;2023-05-10T04:06:08;10.90;62.30
18365;DHT22;9309;52.126;11.616;2023-05-10T04:08:37;10.80;62.60
18365;DHT22;9309;52.126;11.616;2023-05-10T04:11:07;10.70;63.10
18365;DHT22;9309;52.126;11.616;2023-05-10T04:13:34;10.80;62.80
18365;DHT22;9309;52.126;11.616;2023-05-10T04:16:01;10.70;62.90
18365;DHT22;9309;52.126;11.616;2023-05-10T04:18:29;10.80;63.10
18365;DHT22;9309;52.126;11.616;2023-05-10T04:20:56;10.90;63.00
18365;DHT22;9309;52.126;11.616;2023-05-10T04:23:23;11.00;62.30
18365;DHT22;9309;52.126;11.616;2023-05-10T04:25:49;10.80;62.70
18365;DHT22;9309;52.126;11.616;2023-05-10T04:28:16;10.90;62.60
18365;DHT22;9309;52.126;11.616;2023-05-10T04:30:43;11.00;62.60
18365;DHT22;9309;52.126;11.616;2023-05-10T04:33:09;11.00;62.40
18365;DHT22;9309;52.126;11.616;2023-05-10T04:35:37;11.10;62.40
18365;DHT22;9309;52.126;11.616;2023-05-10T04:38:05;11.10;62.50
18365;DHT22;9309;52.126;11.616;2023-05-10T04:40:32;11.30;62.10
18365;DHT22;9309;52.126;11.616;2023-05-10T04:42:58;11.40;61.50
18365;DHT22;9309;52.126;11.616;2023-05-10T04:45:25;11.30;61.70
18365;DHT22;9309;52.126;11.616;2023-05-10T04:47:51;11.30;62.20
18365;DHT22;9309;52.126;11.616;2023-05-10T04:50:18;11.50;61.20
18365;DHT22;9309;52.126;11.616;2023-05-10T04:52:46;11.60;60.70
18365;DHT22;9309;52.126;11.616;2023-05-10T04:55:13;11.30;61.80
18365;DHT22;9309;52.126;11.616;2023-05-10T04:57:39;11.30;62.10
18365;DHT22;9309;52.126;11.616;2023-05-10T05:00:07;11.40;62.00
18365;DHT22;9309;52.126;11.616;2023-05-10T05:02:34;11.50;61.50
18365;DHT22;9309;52.126;11.616;2023-05-10T05:05:00;11.50;61.50
18365;DHT22;9309;52.126;11.616;2023-05-10T05:07:27;11.50;61.60
18365;DHT22;9309;52.126;11.616;2023-05-10T05:09:57;11.60;61.90
18365;DHT22;9309;52.126;11.616;2023-05-10T05:12:23;11.80;61.40
18365;DHT22;9309;52.126;11.616;2023-05-10T05:14:50;12.20;59.90
18365;DHT22;9309;52.126;11.616;2023-05-10T05:17:17;12.00;60.60
18365;DHT22;9309;52.126;11.616;2023-05-10T05:19:43;11.90;60.80
18365;DHT22;9309;52.126;11.616;2023-05-10T05:22:10;12.00;60.70
18365;DHT22;9309;52.126;11.616;2023-05-10T05:24:37;11.90;60.90
18365;DHT22;9309;52.126;11.616;2023-05-10T05:27:05;12.10;60.10
18365;DHT22;9309;52.126;11.616;2023-05-10T05:29:32;12.10;60.40
18365;DHT22;9309;52.126;11.616;2023-05-10T05:31:59;12.00;59.60
18365;DHT22;9309;52.126;11.616;2023-05-10T05:34:25;12.00;60.00
18365;DHT22;9309;52.126;11.616;2023-05-10T05:36:52;11.90;60.10
18365;DHT22;9309;52.126;11.616;2023-05-10T05:39:19;12.10;60.10
18365;DHT22;9309;52.126;11.616;2023-05-10T05:41:45;12.20;60.10
18365;DHT22;9309;52.126;11.616;2023-05-10T05:44:13;12.40;60.10
18365;DHT22;9309;52.126;11.616;2023-05-10T05:46:40;12.50;58.70
18365;DHT22;9309;52.126;11.616;2023-05-10T05:49:07;12.70;59.00
18365;DHT22;9309;52.126;11.616;2023-05-10T05:51:33;13.00;57.80
18365;DHT22;9309;52.126;11.616;2023-05-10T05:54:01;13.00;58.20
18365;DHT22;9309;52.126;11.616;2023-05-10T05:56:29;13.20;57.20
18365;DHT22;9309;52.126;11.616;2023-05-10T05:58:56;13.40;56.50
18365;DHT22;9309;52.126;11.616;2023-05-10T06:01:24;13.10;57.40
18365;DHT22;9309;52.126;11.616;2023-05-10T06:03:50;13.10;58.30
18365;DHT22;9309;52.126;11.616;2023-05-10T06:06:17;13.00;57.90
18365;DHT22;9309;52.126;11.616;2023-05-10T06:08:44;13.10;57.40
18365;DHT22;9309;52.126;11.616;2023-05-10T06:11:10;13.00;58.40
18365;DHT22;9309;52.126;11.616;2023-05-10T06:13:37;13.00;58.30
18365;DHT22;9309;52.126;11.616;2023-05-10T06:16:04;13.20;57.60
18365;DHT22;9309;52.126;11.616;2023-05-10T06:18:32;13.00;58.90
18365;DHT22;9309;52.126;11.616;2023-05-10T06:20:58;12.90;59.10
18365;DHT22;9309;52.126;11.616;2023-05-10T06:23:25;13.00;59.30
18365;DHT22;9309;52.126;11.616;2023-05-10T06:25:52;13.00;59.80
18365;DHT22;9309;52.126;11.616;2023-05-10T06:28:19;13.20;59.40
18365;DHT22;9309;52.126;11.616;2023-05-10T06:30:45;13.20;58.70
18365;DHT22;9309;52.126;11.616;2023-05-10T06:33:13;13.00;58.90
18365;DHT22;9309;52.126;11.616;2023-05-10T06:35:42;13.10;59.10
18365;DHT22;9309;52.126;11.616;2023-05-10T06:38:09;13.20;58.90
18365;DHT22;9309;52.126;11.616;2023-05-10T06:40:36;13.30;58.50
18365;DHT22;9309;52.126;11.616;2023-05-10T06:43:03;13.40;58.30
18365;DHT22;9309;52.126;11.616;2023-05-10T06:45:29;13.90;57.80
18365;DHT22;9309;52.126;11.616;2023-05-10T06:47:56;13.80;57.30
18365;DHT22;9309;52.126;11.616;2023-05-10T06:50:23;13.80;57.20
18365;DHT22;9309;52.126;11.616;2023-05-10T06:52:51;13.80;57.50
18365;DHT22;9309;52.126;11.616;2023-05-10T06:55:17;14.10;56.70
18365;DHT22;9309;52.126;11.616;2023-05-10T06:57:44;14.00;56.40
18365;DHT22;9309;52.126;11.616;2023-05-10T07:00:11;14.10;57.00
18365;DHT22;9309;52.126;11.616;2023-05-10T07:02:38;14.30;56.50
18365;DHT22;9309;52.126;11.616;2023-05-10T07:05:05;14.20;56.40
18365;DHT22;9309;52.126;11.616;2023-05-10T07:07:32;14.30;56.60
18365;DHT22;9309;52.126;11.616;2023-05-10T07:10:00;14.70;55.70
18365;DHT22;9309;52.126;11.616;2023-05-10T07:12:26;15.10;55.70
18365;DHT22;9309;52.126;11.616;2023-05-10T07:14:53;15.60;53.90
18365;DHT22;9309;52.126;11.616;2023-05-10T07:17:19;15.70;53.20
18365;DHT22;9309;52.126;11.616;2023-05-10T07:19:46;15.60;53.30
18365;DHT22;9309;52.126;11.616;2023-05-10T07:22:13;15.40;54.30
18365;DHT22;9309;52.126;11.616;2023-05-10T07:24:40;15.40;54.40
18365;DHT22;9309;52.126;11.616;2023-05-10T07:27:08;15.70;54.30
18365;DHT22;9309;52.126;11.616;2023-05-10T07:29:35;16.10;52.70
18365;DHT22;9309;52.126;11.616;2023-05-10T07:32:02;16.10;52.30
18365;DHT22;9309;52.126;11.616;2023-05-10T07:34:29;15.80;53.40
18365;DHT22;9309;52.126;11.616;2023-05-10T07:36:58;16.10;53.50
18365;DHT22;9309;52.126;11.616;2023-05-10T07:39:25;16.10;52.40
18365;DHT22;9309;52.126;11.616;2023-05-10T07:41:52;16.00;54.10
18365;DHT22;9309;52.126;11.616;2023-05-10T07:44:19;15.90;54.20
18365;DHT22;9309;52.126;11.616;2023-05-10T07:46:46;16.10;53.50
18365;DHT22;9309;52.126;11.616;2023-05-10T07:49:13;16.40;52.40
18365;DHT22;9309;52.126;11.616;2023-05-10T07:51:40;16.40;52.50
18365;DHT22;9309;52.126;11.616;2023-05-10T07:54:07;16.10;52.70
18365;DHT22;9309;52.126;11.616;2023-05-10T07:56:34;16.20;54.20
18365;DHT22;9309;52.126;11.616;2023-05-10T07:59:02;16.30;53.80
18365;DHT22;9309;52.126;11.616;2023-05-10T08:01:33;16.20;53.60
18365;DHT22;9309;52.126;11.616;2023-05-10T08:04:00;16.00;53.90
18365;DHT22;9309;52.126;11.616;2023-05-10T08:06:27;16.10;53.60
18365;DHT22;9309;52.126;11.616;2023-05-10T08:08:55;16.10;54.00
18365;DHT22;9309;52.126;11.616;2023-05-10T08:11:22;16.30;54.30
18365;DHT22;9309;52.126;11.616;2023-05-10T08:13:50;16.40;53.50
18365;DHT22;9309;52.126;11.616;2023-05-10T08:16:17;16.20;53.80
18365;DHT22;9309;52.126;11.616;2023-05-10T08:18:46;16.20;54.20
18365;DHT22;9309;52.126;11.616;2023-05-10T08:21:13;16.00;54.20
18365;DHT22;9309;52.126;11.616;2023-05-10T08:23:40;15.70;54.70
18365;DHT22;9309;52.126;11.616;2023-05-10T08:26:09;15.60;55.90
18365;DHT22;9309;52.126;11.616;2023-05-10T08:28:35;15.50;56.20
18365;DHT22;9309;52.126;11.616;2023-05-10T08:31:02;15.60;56.30
18365;DHT22;9309;52.126;11.616;2023-05-10T08:33:29;15.80;55.90
18365;DHT22;9309;52.126;11.616;2023-05-10T08:35:56;15.90;56.10
18365;DHT22;9309;52.126;11.616;2023-05-10T08:38:23;15.70;56.30
18365;DHT22;9309;52.126;11.616;2023-05-10T08:40:53;15.50;57.20
18365;DHT22;9309;52.126;11.616;2023-05-10T08:43:22;15.40;57.60
18365;DHT22;9309;52.126;11.616;2023-05-10T08:45:52;15.20;57.90
18365;DHT22;9309;52.126;11.616;2023-05-10T08:48:22;15.20;58.50
18365;DHT22;9309;52.126;11.616;2023-05-10T08:50:52;15.30;59.30
18365;DHT22;9309;52.126;11.616;2023-05-10T08:53:21;15.30;58.80
18365;DHT22;9309;52.126;11.616;2023-05-10T08:55:49;15.50;58.70
18365;DHT22;9309;52.126;11.616;2023-05-10T08:58:16;15.50;58.70
18365;DHT22;9309;52.126;11.616;2023-05-10T09:00:45;15.60;58.00
18365;DHT22;9309;52.126;11.616;2023-05-10T09:03:12;15.70;58.10
18365;DHT22;9309;52.126;11.616;2023-05-10T09:05:39;15.70;58.40
18365;DHT22;9309;52.126;11.616;2023-05-10T09:08:07;15.90;58.30
18365;DHT22;9309;52.126;11.616;2023-05-10T09:10:37;16.00;58.50
18365;DHT22;9309;52.126;11.616;2023-05-10T09:13:05;16.10;57.80
18365;DHT22;9309;52.126;11.616;2023-05-10T09:15:32;16.20;57.30
18365;DHT22;9309;52.126;11.616;2023-05-10T09:17:58;16.30;57.20
18365;DHT22;9309;52.126;11.616;2023-05-10T09:20:27;16.20;57.80
18365;DHT22;9309;52.126;11.616;2023-05-10T09:22:54;16.00;57.90
18365;DHT22;9309;52.126;11.616;2023-05-10T09:25:21;15.80;59.00
18365;DHT22;9309;52.126;11.616;2023-05-10T09:27:49;16.00;59.00
18365;DHT22;9309;52.126;11.616;2023-05-10T09:30:16;15.70;59.80
18365;DHT22;9309;52.126;11.616;2023-05-10T09:32:45;15.70;61.10
18365;DHT22;9309;52.126;11.616;2023-05-10T09:35:13;15.70;61.30
18365;DHT22;9309;52.126;11.616;2023-05-10T09:37:41;15.60;61.80
18365;DHT22;9309;52.126;11.616;2023-05-10T09:40:12;15.80;61.40
18365;DHT22;9309;52.126;11.616;2023-05-10T09:42:39;15.80;62.50
18365;DHT22;9309;52.126;11.616;2023-05-10T09:45:08;16.00;61.40
18365;DHT22;9309;52.126;11.616;2023-05-10T09:47:35;16.10;62.10
18365;DHT22;9309;52.126;11.616;2023-05-10T09:50:03;16.30;60.60
18365;DHT22;9309;52.126;11.616;2023-05-10T09:52:30;16.40;61.30
18365;DHT22;9309;52.126;11.616;2023-05-10T09:54:57;16.40;61.20
18365;DHT22;9309;52.126;11.616;2023-05-10T09:57:25;16.40;60.80
18365;DHT22;9309;52.126;11.616;2023-05-10T09:59:52;16.30;60.90
18365;DHT22;9309;52.126;11.616;2023-05-10T10:02:21;16.30;61.30
18365;DHT22;9309;52.126;11.616;2023-05-10T10:04:54;16.50;60.90
18365;DHT22;9309;52.126;11.616;2023-05-10T10:07:22;17.10;60.80
18365;DHT22;9309;52.126;11.616;2023-05-10T10:09:50;17.40;59.60
18365;DHT22;9309;52.126;11.616;2023-05-10T10:12:17;17.50;59.40
18365;DHT22;9309;52.126;11.616;2023-05-10T10:14:46;17.50;60.00
18365;DHT22;9309;52.126;11.616;2023-05-10T10:17:12;17.00;61.30
18365;DHT22;9309;52.126;11.616;2023-05-10T10:19:41;17.10;59.70
18365;DHT22;9309;52.126;11.616;2023-05-10T10:22:08;16.60;61.60
18365;DHT22;9309;52.126;11.616;2023-05-10T10:24:36;16.50;62.60
18365;DHT22;9309;52.126;11.616;2023-05-10T10:27:09;16.70;62.10
18365;DHT22;9309;52.126;11.616;2023-05-10T10:29:42;16.50;62.20
18365;DHT22;9309;52.126;11.616;2023-05-10T10:32:20;16.50;62.80
18365;DHT22;9309;52.126;11.616;2023-05-10T10:34:50;16.40;63.50
18365;DHT22;9309;52.126;11.616;2023-05-10T10:37:17;16.40;62.90
18365;DHT22;9309;52.126;11.616;2023-05-10T10:39:44;16.30;64.10
18365;DHT22;9309;52.126;11.616;2023-05-10T10:42:11;16.20;64.00
18365;DHT22;9309;52.126;11.616;2023-05-10T10:44:38;16.10;65.20
18365;DHT22;9309;52.126;11.616;2023-05-10T10:47:10;16.10;66.30
18365;DHT22;9309;52.126;11.616;2023-05-10T10:49:52;16.10;68.00
18365;DHT22;9309;52.126;11.616;2023-05-10T10:52:24;16.30;67.10
18365;DHT22;9309;52.126;11.616;2023-05-10T10:54:58;16.50;65.70
18365;DHT22;9309;52.126;11.616;2023-05-10T10:57:25;16.40;67.00
18365;DHT22;9309;52.126;11.616;2023-05-10T11:03:04;16.40;67.10
18365;DHT22;9309;52.126;11.616;2023-05-10T11:05:38;16.20;68.70
18365;DHT22;9309;52.126;11.616;2023-05-10T11:08:17;16.50;68.60
18365;DHT22;9309;52.126;11.616;2023-05-10T11:11:08;16.50;67.90
18365;DHT22;9309;52.126;11.616;2023-05-10T11:13:38;16.90;65.20
18365;DHT22;9309;52.126;11.616;2023-05-10T11:16:13;16.50;68.20
18365;DHT22;9309;52.126;11.616;2023-05-10T11:18:40;16.50;67.90
18365;DHT22;9309;52.126;11.616;2023-05-10T11:21:19;16.70;67.90
18365;DHT22;9309;52.126;11.616;2023-05-10T11:23:50;16.80;68.30
18365;DHT22;9309;52.126;11.616;2023-05-10T11:26:17;16.90;67.90
18365;DHT22;9309;52.126;11.616;2023-05-10T11:28:44;16.80;68.50
18365;DHT22;9309;52.126;11.616;2023-05-10T11:31:13;17.00;68.20
18365;DHT22;9309;52.126;11.616;2023-05-10T11:33:43;16.90;67.30
18365;DHT22;9309;52.126;11.616;2023-05-10T11:36:11;17.00;67.00
18365;DHT22;9309;52.126;11.616;2023-05-10T11:38:39;16.50;70.30
18365;DHT22;9309;52.126;11.616;2023-05-10T11:41:08;16.50;70.30
18365;DHT22;9309;52.126;11.616;2023-05-10T11:43:34;16.80;69.50
18365;DHT22;9309;52.126;11.616;2023-05-10T11:46:04;16.80;70.70
18365;DHT22;9309;52.126;11.616;2023-05-10T11:48:30;16.70;70.70
18365;DHT22;9309;52.126;11.616;2023-05-10T11:50:57;16.70;72.00
18365;DHT22;9309;52.126;11.616;2023-05-10T11:53:26;17.00;70.00
18365;DHT22;9309;52.126;11.616;2023-05-10T11:55:54;16.90;70.60
18365;DHT22;9309;52.126;11.616;2023-05-10T11:58:20;17.20;70.10
18365;DHT22;9309;52.126;11.616;2023-05-10T12:00:49;17.80;68.50
18365;DHT22;9309;52.126;11.616;2023-05-10T12:03:16;18.00;67.40
18365;DHT22;9309;52.126;11.616;2023-05-10T12:05:43;17.10;69.00
18365;DHT22;9309;52.126;11.616;2023-05-10T12:08:14;17.10;69.60
18365;DHT22;9309;52.126;11.616;2023-05-10T12:10:41;16.60;71.50
18365;DHT22;9309;52.126;11.616;2023-05-10T12:13:12;16.10;74.90
18365;DHT22;9309;52.126;11.616;2023-05-10T12:15:41;16.10;75.10
18365;DHT22;9309;52.126;11.616;2023-05-10T12:18:08;16.30;74.90
18365;DHT22;9309;52.126;11.616;2023-05-10T12:20:36;16.40;74.70
18365;DHT22;9309;52.126;11.616;2023-05-10T12:23:02;17.00;73.10
18365;DHT22;9309;52.126;11.616;2023-05-10T12:25:31;17.50;71.30
18365;DHT22;9309;52.126;11.616;2023-05-10T12:28:00;17.60;70.00
18365;DHT22;9309;52.126;11.616;2023-05-10T12:30:30;18.40;67.90
18365;DHT22;9309;52.126;11.616;2023-05-10T12:33:00;18.60;66.40
18365;DHT22;9309;52.126;11.616;2023-05-10T12:35:30;18.30;68.50
18365;DHT22;9309;52.126;11.616;2023-05-10T12:37:56;18.10;68.60
18365;DHT22;9309;52.126;11.616;2023-05-10T12:40:23;18.00;68.80
18365;DHT22;9309;52.126;11.616;2023-05-10T12:42:50;17.50;71.40
18365;DHT22;9309;52.126;11.616;2023-05-10T12:45:17;17.40;73.50
18365;DHT22;9309;52.126;11.616;2023-05-10T12:47:45;17.40;74.10
18365;DHT22;9309;52.126;11.616;2023-05-10T12:50:12;17.40;73.30
18365;DHT22;9309;52.126;11.616;2023-05-10T12:52:39;17.40;73.50
18365;DHT22;9309;52.126;11.616;2023-05-10T12:55:06;17.30;73.80
18365;DHT22;9309;52.126;11.616;2023-05-10T12:57:33;17.10;74.10
18365;DHT22;9309;52.126;11.616;2023-05-10T12:59:59;17.00;75.10
18365;DHT22;9309;52.126;11.616;2023-05-10T13:02:26;16.80;76.40
18365;DHT22;9309;52.126;11.616;2023-05-10T13:04:54;16.30;78.50
18365;DHT22;9309;52.126;11.616;2023-05-10T13:07:20;16.00;81.30
18365;DHT22;9309;52.126;11.616;2023-05-10T13:09:47;16.20;80.20
18365;DHT22;9309;52.126;11.616;2023-05-10T13:12:14;16.30;79.80
18365;DHT22;9309;52.126;11.616;2023-05-10T13:14:40;16.10;80.80
18365;DHT22;9309;52.126;11.616;2023-05-10T13:17:07;16.30;80.80
18365;DHT22;9309;52.126;11.616;2023-05-10T13:19:34;16.50;79.60
18365;DHT22;9309;52.126;11.616;2023-05-10T13:22:02;16.80;78.60
18365;DHT22;9309;52.126;11.616;2023-05-10T13:24:29;17.20;76.00
18365;DHT22;9309;52.126;11.616;2023-05-10T13:26:56;17.60;74.00
18365;DHT22;9309;52.126;11.616;2023-05-10T13:29:23;17.80;73.10
18365;DHT22;9309;52.126;11.616;2023-05-10T13:31:49;18.00;72.00
18365;DHT22;9309;52.126;11.616;2023-05-10T13:34:16;18.30;71.70
18365;DHT22;9309;52.126;11.616;2023-05-10T13:36:46;18.30;71.00
18365;DHT22;9309;52.126;11.616;2023-05-10T13:39:14;18.20;70.50
18365;DHT22;9309;52.126;11.616;2023-05-10T13:41:40;18.10;70.30
18365;DHT22;9309;52.126;11.616;2023-05-10T13:44:07;18.50;68.80
18365;DHT22;9309;52.126;11.616;2023-05-10T13:46:34;18.80;68.10
18365;DHT22;9309;52.126;11.616;2023-05-10T13:49:00;19.30;66.50
18365;DHT22;9309;52.126;11.616;2023-05-10T13:51:27;20.20;64.50
18365;DHT22;9309;52.126;11.616;2023-05-10T13:53:54;20.70;62.00
18365;DHT22;9309;52.126;11.616;2023-05-10T13:56:22;20.70;60.60
18365;DHT22;9309;52.126;11.616;2023-05-10T13:58:48;20.80;59.10
18365;DHT22;9309;52.126;11.616;2023-05-10T14:01:15;20.20;59.70
18365;DHT22;9309;52.126;11.616;2023-05-10T14:03:42;19.90;60.30
18365;DHT22;9309;52.126;11.616;2023-05-10T14:06:08;19.10;63.20
18365;DHT22;9309;52.126;11.616;2023-05-10T14:08:35;18.80;64.00
18365;DHT22;9309;52.126;11.616;2023-05-10T14:11:02;18.70;65.10
18365;DHT22;9309;52.126;11.616;2023-05-10T14:13:30;18.30;66.10
18365;DHT22;9309;52.126;11.616;2023-05-10T14:15:57;18.00;67.40
18365;DHT22;9309;52.126;11.616;2023-05-10T14:18:25;17.70;68.50
18365;DHT22;9309;52.126;11.616;2023-05-10T14:20:52;17.60;69.00
18365;DHT22;9309;52.126;11.616;2023-05-10T14:23:19;18.10;66.40
18365;DHT22;9309;52.126;11.616;2023-05-10T14:25:49;18.50;64.40
18365;DHT22;9309;52.126;11.616;2023-05-10T14:28:16;19.00;63.20
18365;DHT22;9309;52.126;11.616;2023-05-10T14:30:45;19.10;61.30
18365;DHT22;9309;52.126;11.616;2023-05-10T14:33:11;19.00;61.70
18365;DHT22;9309;52.126;11.616;2023-05-10T14:35:38;19.10;62.00
18365;DHT22;9309;52.126;11.616;2023-05-10T14:38:06;19.10;61.80
18365;DHT22;9309;52.126;11.616;2023-05-10T14:40:32;19.20;60.60
18365;DHT22;9309;52.126;11.616;2023-05-10T14:42:59;18.60;62.90
18365;DHT22;9309;52.126;11.616;2023-05-10T14:45:26;18.20;64.80
18365;DHT22;9309;52.126;11.616;2023-05-10T14:47:55;18.60;64.20
18365;DHT22;9309;52.126;11.616;2023-05-10T14:50:21;19.10;62.00
18365;DHT22;9309;52.126;11.616;2023-05-10T14:52:48;19.20;60.40
18365;DHT22;9309;52.126;11.616;2023-05-10T14:55:15;18.90;62.30
18365;DHT22;9309;52.126;11.616;2023-05-10T14:57:42;18.40;63.10
18365;DHT22;9309;52.126;11.616;2023-05-10T15:00:11;18.60;64.00
18365;DHT22;9309;52.126;11.616;2023-05-10T15:02:37;19.00;63.00
18365;DHT22;9309;52.126;11.616;2023-05-10T15:05:06;19.30;61.90
18365;DHT22;9309;52.126;11.616;2023-05-10T15:07:33;19.40;60.90
18365;DHT22;9309;52.126;11.616;2023-05-10T15:10:00;19.30;61.30
18365;DHT22;9309;52.126;11.616;2023-05-10T15:12:26;18.90;62.20
18365;DHT22;9309;52.126;11.616;2023-05-10T15:14:53;18.70;63.40
18365;DHT22;9309;52.126;11.616;2023-05-10T15:17:21;18.80;63.70
18365;DHT22;9309;52.126;11.616;2023-05-10T15:19:47;18.80;63.90
18365;DHT22;9309;52.126;11.616;2023-05-10T15:22:16;19.00;63.10
18365;DHT22;9309;52.126;11.616;2023-05-10T15:24:43;19.10;63.00
18365;DHT22;9309;52.126;11.616;2023-05-10T15:27:09;19.10;63.00
18365;DHT22;9309;52.126;11.616;2023-05-10T15:29:36;19.00;63.20
18365;DHT22;9309;52.126;11.616;2023-05-10T15:32:03;18.50;65.30
18365;DHT22;9309;52.126;11.616;2023-05-10T15:34:30;18.30;66.20
18365;DHT22;9309;52.126;11.616;2023-05-10T15:36:56;18.50;64.80
18365;DHT22;9309;52.126;11.616;2023-05-10T15:39:24;18.70;65.30